sensor_id;sensor_type;location;lat;lon;timestamp;P1;durP1;ratioP1;P2;durP2;ratioP2
19812;SDS011;10066;48.108;11.448;2023-07-13T00:00:49;3.77;;;2.63;;
19812;SDS011;10066;48.108;11.448;2023-07-13T00:03:16;4.80;;;2.97;;
19812;SDS011;10066;48.108;11.448;2023-07-13T00:05:44;3.93;;;3.00;;
19812;SDS011;10066;48.108;11.448;2023-07-13T00:08:12;3.53;;;2.83;;
19812;SDS011;10066;48.108;11.448;2023-07-13T00:10:40;4.20;;;3.30;;
19812;SDS011;10066;48.108;11.448;2023-07-13T00:13:07;4.57;;;2.80;;
19812;SDS011;10066;48.108;11.448;2023-07-13T00:15:34;3.50;;;2.90;;
19812;SDS011;10066;48.108;11.448;2023-07-13T00:18:01;3.83;;;2.70;;
19812;SDS011;10066;48.108;11.448;2023-07-13T00:20:28;4.30;;;2.50;;
19812;SDS011;10066;48.108;11.448;2023-07-13T00:22:56;3.90;;;3.13;;
19812;SDS011;10066;48.108;11.448;2023-07-13T00:25:23;4.23;;;2.40;;
19812;SDS011;10066;48.108;11.448;2023-07-13T00:27:51;3.50;;;2.90;;
19812;SDS011;10066;48.108;11.448;2023-07-13T00:30:18;5.23;;;2.90;;
19812;SDS011;10066;48.108;11.448;2023-07-13T00:32:45;3.73;;;3.00;;
19812;SDS011;10066;48.108;11.448;2023-07-13T00:35:12;3.77;;;2.53;;
19812;SDS011;10066;48.108;11.448;2023-07-13T00:37:40;3.50;;;2.70;;
19812;SDS011;10066;48.108;11.448;2023-07-13T00:40:09;4.17;;;2.70;;
19812;SDS011;10066;48.108;11.448;2023-07-13T00:42:38;5.67;;;2.60;;
19812;SDS011;10066;48.108;11.448;2023-07-13T00:45:07;4.43;;;2.70;;
19812;SDS011;10066;48.108;11.448;2023-07-13T00:47:49;4.07;;;2.67;;
19812;SDS011;10066;48.108;11.448;2023-07-13T00:50:16;3.20;;;2.40;;
19812;SDS011;10066;48.108;11.448;2023-07-13T00:52:46;5.20;;;2.33;;
19812;SDS011;10066;48.108;11.448;2023-07-13T00:55:18;3.83;;;2.40;;
19812;SDS011;10066;48.108;11.448;2023-07-13T00:57:46;3.30;;;2.57;;
19812;SDS011;10066;48.108;11.448;2023-07-13T01:00:14;2.97;;;2.50;;
19812;SDS011;10066;48.108;11.448;2023-07-13T01:02:43;4.63;;;2.67;;
19812;SDS011;10066;48.108;11.448;2023-07-13T01:05:12;3.97;;;2.50;;
19812;SDS011;10066;48.108;11.448;2023-07-13T01:07:41;5.07;;;2.33;;
19812;SDS011;10066;48.108;11.448;2023-07-13T01:10:10;7.03;;;2.77;;
19812;SDS011;10066;48.108;11.448;2023-07-13T01:12:39;3.40;;;2.40;;
19812;SDS011;10066;48.108;11.448;2023-07-13T01:15:32;2.63;;;2.23;;
19812;SDS011;10066;48.108;11.448;2023-07-13T01:18:03;3.43;;;2.37;;
19812;SDS011;10066;48.108;11.448;2023-07-13T01:20:32;6.20;;;2.60;;
19812;SDS011;10066;48.108;11.448;2023-07-13T01:23:04;3.67;;;2.60;;
19812;SDS011;10066;48.108;11.448;2023-07-13T01:25:33;2.77;;;2.30;;
19812;SDS011;10066;48.108;11.448;2023-07-13T01:28:01;4.23;;;2.40;;
19812;SDS011;10066;48.108;11.448;2023-07-13T01:30:28;6.07;;;2.60;;
19812;SDS011;10066;48.108;11.448;2023-07-13T01:32:56;2.67;;;2.47;;
19812;SDS011;10066;48.108;11.448;2023-07-13T01:35:24;3.43;;;2.27;;
19812;SDS011;10066;48.108;11.448;2023-07-13T01:37:52;2.63;;;2.13;;
19812;SDS011;10066;48.108;11.448;2023-07-13T01:40:20;3.07;;;2.23;;
19812;SDS011;10066;48.108;11.448;2023-07-13T01:42:47;3.70;;;2.40;;
19812;SDS011;10066;48.108;11.448;2023-07-13T01:45:15;3.33;;;2.37;;
19812;SDS011;10066;48.108;11.448;2023-07-13T01:47:42;3.27;;;2.73;;
19812;SDS011;10066;48.108;11.448;2023-07-13T01:50:09;4.17;;;2.70;;
19812;SDS011;10066;48.108;11.448;2023-07-13T01:52:36;5.23;;;2.70;;
19812;SDS011;10066;48.108;11.448;2023-07-13T01:55:03;4.80;;;2.70;;
19812;SDS011;10066;48.108;11.448;2023-07-13T01:57:32;4.30;;;2.50;;
19812;SDS011;10066;48.108;11.448;2023-07-13T01:59:59;9.60;;;2.43;;
19812;SDS011;10066;48.108;11.448;2023-07-13T02:02:27;3.93;;;2.47;;
19812;SDS011;10066;48.108;11.448;2023-07-13T02:04:54;4.93;;;2.50;;
19812;SDS011;10066;48.108;11.448;2023-07-13T02:07:21;3.07;;;2.63;;
19812;SDS011;10066;48.108;11.448;2023-07-13T02:09:48;3.93;;;2.77;;
19812;SDS011;10066;48.108;11.448;2023-07-13T02:12:15;3.53;;;2.60;;
19812;SDS011;10066;48.108;11.448;2023-07-13T02:14:43;6.60;;;2.77;;
19812;SDS011;10066;48.108;11.448;2023-07-13T02:17:10;3.73;;;2.50;;
19812;SDS011;10066;48.108;11.448;2023-07-13T02:19:38;4.37;;;2.40;;
19812;SDS011;10066;48.108;11.448;2023-07-13T02:22:05;5.60;;;2.70;;
19812;SDS011;10066;48.108;11.448;2023-07-13T02:24:32;3.37;;;2.63;;
19812;SDS011;10066;48.108;11.448;2023-07-13T02:26:59;3.43;;;2.93;;
19812;SDS011;10066;48.108;11.448;2023-07-13T02:29:26;3.77;;;2.57;;
19812;SDS011;10066;48.108;11.448;2023-07-13T02:31:54;5.13;;;2.70;;
19812;SDS011;10066;48.108;11.448;2023-07-13T02:34:21;4.70;;;2.70;;
19812;SDS011;10066;48.108;11.448;2023-07-13T02:36:48;2.83;;;2.40;;
19812;SDS011;10066;48.108;11.448;2023-07-13T02:39:15;5.00;;;2.90;;
19812;SDS011;10066;48.108;11.448;2023-07-13T02:41:42;5.30;;;3.03;;
19812;SDS011;10066;48.108;11.448;2023-07-13T02:44:09;2.97;;;2.73;;
19812;SDS011;10066;48.108;11.448;2023-07-13T02:46:39;2.97;;;2.70;;
19812;SDS011;10066;48.108;11.448;2023-07-13T02:49:07;3.17;;;2.67;;
19812;SDS011;10066;48.108;11.448;2023-07-13T02:51:34;3.17;;;2.63;;
19812;SDS011;10066;48.108;11.448;2023-07-13T02:54:01;3.63;;;2.70;;
19812;SDS011;10066;48.108;11.448;2023-07-13T02:56:28;4.07;;;2.63;;
19812;SDS011;10066;48.108;11.448;2023-07-13T02:58:57;5.33;;;3.00;;
19812;SDS011;10066;48.108;11.448;2023-07-13T03:01:24;5.77;;;3.03;;
19812;SDS011;10066;48.108;11.448;2023-07-13T03:03:51;7.47;;;3.77;;
19812;SDS011;10066;48.108;11.448;2023-07-13T03:06:20;7.70;;;3.37;;
19812;SDS011;10066;48.108;11.448;2023-07-13T03:08:48;7.80;;;3.60;;
19812;SDS011;10066;48.108;11.448;2023-07-13T03:11:16;7.97;;;3.83;;
19812;SDS011;10066;48.108;11.448;2023-07-13T03:13:45;16.17;;;4.00;;
19812;SDS011;10066;48.108;11.448;2023-07-13T03:16:12;6.20;;;3.57;;
19812;SDS011;10066;48.108;11.448;2023-07-13T03:18:41;5.70;;;3.80;;
19812;SDS011;10066;48.108;11.448;2023-07-13T03:21:08;7.70;;;3.43;;
19812;SDS011;10066;48.108;11.448;2023-07-13T03:23:36;6.90;;;3.77;;
19812;SDS011;10066;48.108;11.448;2023-07-13T03:26:04;6.37;;;4.30;;
19812;SDS011;10066;48.108;11.448;2023-07-13T03:28:32;7.37;;;4.03;;
19812;SDS011;10066;48.108;11.448;2023-07-13T03:31:00;8.00;;;4.37;;
19812;SDS011;10066;48.108;11.448;2023-07-13T03:33:29;9.70;;;4.83;;
19812;SDS011;10066;48.108;11.448;2023-07-13T03:35:56;9.47;;;4.17;;
19812;SDS011;10066;48.108;11.448;2023-07-13T03:38:23;7.17;;;4.20;;
19812;SDS011;10066;48.108;11.448;2023-07-13T03:40:52;9.67;;;4.00;;
19812;SDS011;10066;48.108;11.448;2023-07-13T03:43:19;6.63;;;3.90;;
19812;SDS011;10066;48.108;11.448;2023-07-13T03:45:46;6.80;;;4.07;;
19812;SDS011;10066;48.108;11.448;2023-07-13T03:48:14;6.13;;;4.33;;
19812;SDS011;10066;48.108;11.448;2023-07-13T03:50:41;6.83;;;4.37;;
19812;SDS011;10066;48.108;11.448;2023-07-13T03:53:08;8.90;;;4.20;;
19812;SDS011;10066;48.108;11.448;2023-07-13T03:55:35;8.47;;;4.23;;
19812;SDS011;10066;48.108;11.448;2023-07-13T04:00:54;8.07;;;4.43;;
19812;SDS011;10066;48.108;11.448;2023-07-13T04:03:21;6.13;;;4.40;;
19812;SDS011;10066;48.108;11.448;2023-07-13T04:05:48;7.77;;;4.20;;
19812;SDS011;10066;48.108;11.448;2023-07-13T04:08:15;11.30;;;4.53;;
19812;SDS011;10066;48.108;11.448;2023-07-13T04:10:42;8.27;;;4.47;;
19812;SDS011;10066;48.108;11.448;2023-07-13T04:13:10;6.73;;;4.60;;
19812;SDS011;10066;48.108;11.448;2023-07-13T04:15:39;6.00;;;4.50;;
19812;SDS011;10066;48.108;11.448;2023-07-13T04:18:06;7.13;;;4.40;;
19812;SDS011;10066;48.108;11.448;2023-07-13T04:20:34;7.37;;;4.50;;
19812;SDS011;10066;48.108;11.448;2023-07-13T04:23:01;8.30;;;4.73;;
19812;SDS011;10066;48.108;11.448;2023-07-13T04:25:28;7.73;;;4.70;;
19812;SDS011;10066;48.108;11.448;2023-07-13T04:27:55;4.97;;;4.40;;
19812;SDS011;10066;48.108;11.448;2023-07-13T04:30:23;7.47;;;4.53;;
19812;SDS011;10066;48.108;11.448;2023-07-13T04:32:52;7.97;;;4.63;;
19812;SDS011;10066;48.108;11.448;2023-07-13T04:35:19;6.53;;;4.70;;
19812;SDS011;10066;48.108;11.448;2023-07-13T04:37:47;7.43;;;4.70;;
19812;SDS011;10066;48.108;11.448;2023-07-13T04:40:15;6.47;;;4.43;;
19812;SDS011;10066;48.108;11.448;2023-07-13T04:42:43;7.30;;;4.70;;
19812;SDS011;10066;48.108;11.448;2023-07-13T04:45:11;8.87;;;4.93;;
19812;SDS011;10066;48.108;11.448;2023-07-13T04:47:39;5.97;;;4.53;;
19812;SDS011;10066;48.108;11.448;2023-07-13T04:50:09;8.43;;;4.37;;
19812;SDS011;10066;48.108;11.448;2023-07-13T04:52:40;5.90;;;4.20;;
19812;SDS011;10066;48.108;11.448;2023-07-13T04:55:07;7.10;;;4.27;;
19812;SDS011;10066;48.108;11.448;2023-07-13T04:57:34;8.23;;;4.27;;
19812;SDS011;10066;48.108;11.448;2023-07-13T05:00:02;9.30;;;4.33;;
19812;SDS011;10066;48.108;11.448;2023-07-13T05:02:32;6.40;;;4.30;;
19812;SDS011;10066;48.108;11.448;2023-07-13T05:05:01;8.83;;;4.27;;
19812;SDS011;10066;48.108;11.448;2023-07-13T05:07:30;6.20;;;4.47;;
19812;SDS011;10066;48.108;11.448;2023-07-13T05:09:58;7.37;;;4.30;;
19812;SDS011;10066;48.108;11.448;2023-07-13T05:12:24;6.83;;;4.23;;
19812;SDS011;10066;48.108;11.448;2023-07-13T05:14:51;5.93;;;3.77;;
19812;SDS011;10066;48.108;11.448;2023-07-13T05:17:18;8.57;;;4.60;;
19812;SDS011;10066;48.108;11.448;2023-07-13T05:19:45;6.00;;;4.30;;
19812;SDS011;10066;48.108;11.448;2023-07-13T05:22:12;4.53;;;3.60;;
19812;SDS011;10066;48.108;11.448;2023-07-13T05:24:40;5.40;;;3.93;;
19812;SDS011;10066;48.108;11.448;2023-07-13T05:27:07;5.53;;;3.67;;
19812;SDS011;10066;48.108;11.448;2023-07-13T05:29:34;8.97;;;4.07;;
19812;SDS011;10066;48.108;11.448;2023-07-13T05:32:01;6.07;;;3.70;;
19812;SDS011;10066;48.108;11.448;2023-07-13T05:34:28;5.20;;;3.77;;
19812;SDS011;10066;48.108;11.448;2023-07-13T05:36:55;4.60;;;3.60;;
19812;SDS011;10066;48.108;11.448;2023-07-13T05:39:22;4.20;;;3.30;;
19812;SDS011;10066;48.108;11.448;2023-07-13T05:41:51;5.27;;;3.33;;
19812;SDS011;10066;48.108;11.448;2023-07-13T05:44:18;6.27;;;3.90;;
19812;SDS011;10066;48.108;11.448;2023-07-13T05:46:45;6.73;;;3.40;;
19812;SDS011;10066;48.108;11.448;2023-07-13T05:49:12;4.60;;;3.60;;
19812;SDS011;10066;48.108;11.448;2023-07-13T05:51:38;5.43;;;3.20;;
19812;SDS011;10066;48.108;11.448;2023-07-13T05:54:05;6.50;;;4.00;;
19812;SDS011;10066;48.108;11.448;2023-07-13T05:56:32;9.33;;;4.10;;
19812;SDS011;10066;48.108;11.448;2023-07-13T05:59:00;4.83;;;3.60;;
19812;SDS011;10066;48.108;11.448;2023-07-13T06:01:29;5.67;;;4.03;;
19812;SDS011;10066;48.108;11.448;2023-07-13T06:03:56;5.00;;;3.70;;
19812;SDS011;10066;48.108;11.448;2023-07-13T06:06:23;6.90;;;4.20;;
19812;SDS011;10066;48.108;11.448;2023-07-13T06:08:50;5.30;;;3.80;;
19812;SDS011;10066;48.108;11.448;2023-07-13T06:11:17;7.73;;;3.50;;
19812;SDS011;10066;48.108;11.448;2023-07-13T06:13:46;7.83;;;3.17;;
19812;SDS011;10066;48.108;11.448;2023-07-13T06:16:15;4.40;;;3.17;;
19812;SDS011;10066;48.108;11.448;2023-07-13T06:18:43;5.57;;;3.20;;
19812;SDS011;10066;48.108;11.448;2023-07-13T06:21:11;8.03;;;3.23;;
19812;SDS011;10066;48.108;11.448;2023-07-13T06:23:39;6.03;;;3.10;;
19812;SDS011;10066;48.108;11.448;2023-07-13T06:26:07;4.50;;;3.30;;
19812;SDS011;10066;48.108;11.448;2023-07-13T06:28:35;6.77;;;3.27;;
19812;SDS011;10066;48.108;11.448;2023-07-13T06:31:05;4.70;;;3.30;;
19812;SDS011;10066;48.108;11.448;2023-07-13T06:33:34;8.07;;;3.63;;
19812;SDS011;10066;48.108;11.448;2023-07-13T06:36:02;6.40;;;3.20;;
19812;SDS011;10066;48.108;11.448;2023-07-13T06:38:30;5.53;;;3.20;;
19812;SDS011;10066;48.108;11.448;2023-07-13T06:40:57;5.23;;;2.90;;
19812;SDS011;10066;48.108;11.448;2023-07-13T06:43:24;5.90;;;2.70;;
19812;SDS011;10066;48.108;11.448;2023-07-13T06:45:51;6.03;;;3.03;;
19812;SDS011;10066;48.108;11.448;2023-07-13T06:48:20;3.20;;;2.70;;
19812;SDS011;10066;48.108;11.448;2023-07-13T06:50:49;7.50;;;2.50;;
19812;SDS011;10066;48.108;11.448;2023-07-13T06:53:18;6.40;;;3.00;;
19812;SDS011;10066;48.108;11.448;2023-07-13T06:55:46;3.67;;;2.80;;
19812;SDS011;10066;48.108;11.448;2023-07-13T06:58:14;6.60;;;2.80;;
19812;SDS011;10066;48.108;11.448;2023-07-13T07:00:41;5.87;;;3.00;;
19812;SDS011;10066;48.108;11.448;2023-07-13T07:03:08;7.03;;;2.90;;
19812;SDS011;10066;48.108;11.448;2023-07-13T07:05:35;4.20;;;2.80;;
19812;SDS011;10066;48.108;11.448;2023-07-13T07:08:04;3.60;;;2.60;;
19812;SDS011;10066;48.108;11.448;2023-07-13T07:10:31;4.77;;;2.37;;
19812;SDS011;10066;48.108;11.448;2023-07-13T07:12:58;7.57;;;2.70;;
19812;SDS011;10066;48.108;11.448;2023-07-13T07:15:26;6.37;;;2.53;;
19812;SDS011;10066;48.108;11.448;2023-07-13T07:17:53;3.50;;;2.80;;
19812;SDS011;10066;48.108;11.448;2023-07-13T07:20:20;4.17;;;2.17;;
19812;SDS011;10066;48.108;11.448;2023-07-13T07:22:47;9.13;;;2.40;;
19812;SDS011;10066;48.108;11.448;2023-07-13T07:25:16;5.33;;;2.03;;
19812;SDS011;10066;48.108;11.448;2023-07-13T07:27:43;3.20;;;2.20;;
19812;SDS011;10066;48.108;11.448;2023-07-13T07:30:11;4.47;;;1.93;;
19812;SDS011;10066;48.108;11.448;2023-07-13T07:32:38;4.00;;;2.23;;
19812;SDS011;10066;48.108;11.448;2023-07-13T07:35:06;5.37;;;2.00;;
19812;SDS011;10066;48.108;11.448;2023-07-13T07:37:33;5.53;;;2.07;;
19812;SDS011;10066;48.108;11.448;2023-07-13T07:40:00;4.83;;;2.27;;
19812;SDS011;10066;48.108;11.448;2023-07-13T07:42:29;3.60;;;1.97;;
19812;SDS011;10066;48.108;11.448;2023-07-13T07:44:56;4.60;;;2.10;;
19812;SDS011;10066;48.108;11.448;2023-07-13T07:47:23;2.80;;;2.10;;
19812;SDS011;10066;48.108;11.448;2023-07-13T07:49:50;5.53;;;2.03;;
19812;SDS011;10066;48.108;11.448;2023-07-13T07:52:18;4.47;;;2.10;;
19812;SDS011;10066;48.108;11.448;2023-07-13T07:54:45;5.77;;;2.00;;
19812;SDS011;10066;48.108;11.448;2023-07-13T07:57:12;4.17;;;2.30;;
19812;SDS011;10066;48.108;11.448;2023-07-13T07:59:40;4.33;;;2.00;;
19812;SDS011;10066;48.108;11.448;2023-07-13T08:02:08;4.30;;;1.83;;
19812;SDS011;10066;48.108;11.448;2023-07-13T08:04:36;6.53;;;2.10;;
19812;SDS011;10066;48.108;11.448;2023-07-13T08:07:03;4.63;;;2.00;;
19812;SDS011;10066;48.108;11.448;2023-07-13T08:09:31;5.67;;;1.90;;
19812;SDS011;10066;48.108;11.448;2023-07-13T08:11:58;4.93;;;2.30;;
19812;SDS011;10066;48.108;11.448;2023-07-13T08:14:25;2.90;;;1.70;;
19812;SDS011;10066;48.108;11.448;2023-07-13T08:16:54;4.47;;;2.10;;
19812;SDS011;10066;48.108;11.448;2023-07-13T08:19:21;3.00;;;2.30;;
19812;SDS011;10066;48.108;11.448;2023-07-13T08:21:48;4.90;;;2.27;;
19812;SDS011;10066;48.108;11.448;2023-07-13T08:24:15;4.70;;;2.10;;
19812;SDS011;10066;48.108;11.448;2023-07-13T08:26:43;7.53;;;2.10;;
19812;SDS011;10066;48.108;11.448;2023-07-13T08:29:11;4.23;;;2.20;;
19812;SDS011;10066;48.108;11.448;2023-07-13T08:31:38;2.30;;;1.60;;
19812;SDS011;10066;48.108;11.448;2023-07-13T08:34:06;4.90;;;2.00;;
19812;SDS011;10066;48.108;11.448;2023-07-13T08:36:33;4.60;;;1.70;;
19812;SDS011;10066;48.108;11.448;2023-07-13T08:39:00;5.90;;;1.97;;
19812;SDS011;10066;48.108;11.448;2023-07-13T08:41:27;5.70;;;1.90;;
19812;SDS011;10066;48.108;11.448;2023-07-13T08:43:59;4.47;;;2.00;;
19812;SDS011;10066;48.108;11.448;2023-07-13T08:46:28;3.03;;;1.63;;
19812;SDS011;10066;48.108;11.448;2023-07-13T08:48:59;5.33;;;2.10;;
19812;SDS011;10066;48.108;11.448;2023-07-13T08:51:34;4.37;;;2.00;;
19812;SDS011;10066;48.108;11.448;2023-07-13T08:54:08;4.00;;;1.60;;
19812;SDS011;10066;48.108;11.448;2023-07-13T08:56:40;3.80;;;1.63;;
19812;SDS011;10066;48.108;11.448;2023-07-13T08:59:09;4.03;;;1.70;;
19812;SDS011;10066;48.108;11.448;2023-07-13T09:01:46;4.53;;;1.57;;
19812;SDS011;10066;48.108;11.448;2023-07-13T09:04:21;5.77;;;2.33;;
19812;SDS011;10066;48.108;11.448;2023-07-13T09:06:58;2.57;;;1.47;;
19812;SDS011;10066;48.108;11.448;2023-07-13T09:09:32;5.77;;;1.63;;
19812;SDS011;10066;48.108;11.448;2023-07-13T09:12:08;2.53;;;1.30;;
19812;SDS011;10066;48.108;11.448;2023-07-13T09:14:42;3.13;;;1.40;;
19812;SDS011;10066;48.108;11.448;2023-07-13T09:17:12;5.00;;;1.53;;
19812;SDS011;10066;48.108;11.448;2023-07-13T09:19:45;6.27;;;1.40;;
19812;SDS011;10066;48.108;11.448;2023-07-13T09:22:17;6.47;;;1.40;;
19812;SDS011;10066;48.108;11.448;2023-07-13T09:24:50;5.47;;;1.20;;
19812;SDS011;10066;48.108;11.448;2023-07-13T09:27:22;1.77;;;1.30;;
19812;SDS011;10066;48.108;11.448;2023-07-13T09:29:54;3.77;;;1.40;;
19812;SDS011;10066;48.108;11.448;2023-07-13T09:32:24;3.70;;;1.53;;
19812;SDS011;10066;48.108;11.448;2023-07-13T09:34:55;3.20;;;1.30;;
19812;SDS011;10066;48.108;11.448;2023-07-13T09:37:28;8.07;;;1.37;;
19812;SDS011;10066;48.108;11.448;2023-07-13T09:39:58;2.37;;;1.50;;
19812;SDS011;10066;48.108;11.448;2023-07-13T09:42:29;4.17;;;1.50;;
19812;SDS011;10066;48.108;11.448;2023-07-13T09:44:59;5.23;;;1.30;;
19812;SDS011;10066;48.108;11.448;2023-07-13T09:47:29;3.50;;;1.33;;
19812;SDS011;10066;48.108;11.448;2023-07-13T09:49:58;3.63;;;1.30;;
19812;SDS011;10066;48.108;11.448;2023-07-13T09:52:28;3.53;;;1.00;;
19812;SDS011;10066;48.108;11.448;2023-07-13T09:55:15;2.87;;;1.20;;
19812;SDS011;10066;48.108;11.448;2023-07-13T09:57:50;4.93;;;1.20;;
19812;SDS011;10066;48.108;11.448;2023-07-13T10:00:21;3.97;;;1.10;;
19812;SDS011;10066;48.108;11.448;2023-07-13T10:02:58;2.27;;;1.33;;
19812;SDS011;10066;48.108;11.448;2023-07-13T10:05:28;5.73;;;1.43;;
19812;SDS011;10066;48.108;11.448;2023-07-13T10:08:08;3.57;;;1.10;;
19812;SDS011;10066;48.108;11.448;2023-07-13T10:10:43;6.97;;;1.30;;
19812;SDS011;10066;48.108;11.448;2023-07-13T10:13:32;6.50;;;1.40;;
19812;SDS011;10066;48.108;11.448;2023-07-13T10:16:02;3.73;;;1.20;;
19812;SDS011;10066;48.108;11.448;2023-07-13T10:18:31;4.50;;;1.50;;
19812;SDS011;10066;48.108;11.448;2023-07-13T10:21:14;3.83;;;1.00;;
19812;SDS011;10066;48.108;11.448;2023-07-13T10:23:44;3.03;;;1.00;;
19812;SDS011;10066;48.108;11.448;2023-07-13T10:26:15;8.40;;;1.43;;
19812;SDS011;10066;48.108;11.448;2023-07-13T10:28:46;4.30;;;1.30;;
19812;SDS011;10066;48.108;11.448;2023-07-13T10:31:20;2.70;;;1.23;;
19812;SDS011;10066;48.108;11.448;2023-07-13T10:33:48;2.40;;;1.10;;
19812;SDS011;10066;48.108;11.448;2023-07-13T10:36:20;10.13;;;2.27;;
19812;SDS011;10066;48.108;11.448;2023-07-13T10:38:57;3.00;;;1.17;;
19812;SDS011;10066;48.108;11.448;2023-07-13T10:41:28;3.37;;;1.37;;
19812;SDS011;10066;48.108;11.448;2023-07-13T10:43:57;2.83;;;1.13;;
19812;SDS011;10066;48.108;11.448;2023-07-13T10:46:27;4.63;;;1.37;;
19812;SDS011;10066;48.108;11.448;2023-07-13T10:48:58;3.00;;;1.00;;
19812;SDS011;10066;48.108;11.448;2023-07-13T10:51:29;3.27;;;1.20;;
19812;SDS011;10066;48.108;11.448;2023-07-13T10:54:16;4.47;;;1.03;;
19812;SDS011;10066;48.108;11.448;2023-07-13T10:56:47;3.07;;;1.10;;
19812;SDS011;10066;48.108;11.448;2023-07-13T10:59:17;4.30;;;1.10;;
19812;SDS011;10066;48.108;11.448;2023-07-13T11:01:49;5.07;;;1.20;;
19812;SDS011;10066;48.108;11.448;2023-07-13T11:04:21;3.43;;;1.33;;
19812;SDS011;10066;48.108;11.448;2023-07-13T11:06:50;2.17;;;1.20;;
19812;SDS011;10066;48.108;11.448;2023-07-13T11:12:25;11.70;;;1.47;;
19812;SDS011;10066;48.108;11.448;2023-07-13T11:15:09;4.23;;;1.20;;
19812;SDS011;10066;48.108;11.448;2023-07-13T11:17:46;5.40;;;1.40;;
19812;SDS011;10066;48.108;11.448;2023-07-13T11:20:20;3.07;;;1.50;;
19812;SDS011;10066;48.108;11.448;2023-07-13T11:23:20;8.43;;;1.57;;
19812;SDS011;10066;48.108;11.448;2023-07-13T11:25:57;6.17;;;1.40;;
19812;SDS011;10066;48.108;11.448;2023-07-13T11:28:26;5.37;;;1.20;;
19812;SDS011;10066;48.108;11.448;2023-07-13T11:31:00;3.77;;;1.30;;
19812;SDS011;10066;48.108;11.448;2023-07-13T11:33:45;2.47;;;1.30;;
19812;SDS011;10066;48.108;11.448;2023-07-13T11:36:20;3.33;;;1.43;;
19812;SDS011;10066;48.108;11.448;2023-07-13T11:38:51;4.20;;;1.40;;
19812;SDS011;10066;48.108;11.448;2023-07-13T11:41:28;4.97;;;1.33;;
19812;SDS011;10066;48.108;11.448;2023-07-13T11:44:02;3.17;;;1.40;;
19812;SDS011;10066;48.108;11.448;2023-07-13T11:46:34;3.83;;;1.40;;
19812;SDS011;10066;48.108;11.448;2023-07-13T11:49:01;3.43;;;1.10;;
19812;SDS011;10066;48.108;11.448;2023-07-13T11:51:32;2.93;;;1.50;;
19812;SDS011;10066;48.108;11.448;2023-07-13T11:54:02;2.20;;;1.20;;
19812;SDS011;10066;48.108;11.448;2023-07-13T11:56:33;3.80;;;1.30;;
19812;SDS011;10066;48.108;11.448;2023-07-13T11:59:04;4.53;;;1.50;;
19812;SDS011;10066;48.108;11.448;2023-07-13T12:01:32;3.10;;;1.60;;
19812;SDS011;10066;48.108;11.448;2023-07-13T12:04:00;3.73;;;1.33;;
19812;SDS011;10066;48.108;11.448;2023-07-13T12:06:29;4.00;;;1.30;;
19812;SDS011;10066;48.108;11.448;2023-07-13T12:08:58;3.00;;;1.27;;
19812;SDS011;10066;48.108;11.448;2023-07-13T12:11:26;3.83;;;1.23;;
19812;SDS011;10066;48.108;11.448;2023-07-13T12:13:55;4.73;;;1.60;;
19812;SDS011;10066;48.108;11.448;2023-07-13T12:16:28;5.10;;;1.40;;
19812;SDS011;10066;48.108;11.448;2023-07-13T12:18:57;2.07;;;1.17;;
19812;SDS011;10066;48.108;11.448;2023-07-13T12:21:28;2.80;;;1.15;;
19812;SDS011;10066;48.108;11.448;2023-07-13T12:23:58;4.20;;;1.40;;
19812;SDS011;10066;48.108;11.448;2023-07-13T12:26:27;5.93;;;1.33;;
19812;SDS011;10066;48.108;11.448;2023-07-13T12:28:58;2.07;;;1.20;;
19812;SDS011;10066;48.108;11.448;2023-07-13T12:31:30;4.03;;;1.20;;
19812;SDS011;10066;48.108;11.448;2023-07-13T12:34:00;3.90;;;1.30;;
19812;SDS011;10066;48.108;11.448;2023-07-13T12:36:32;3.50;;;1.20;;
19812;SDS011;10066;48.108;11.448;2023-07-13T12:39:03;1.97;;;1.10;;
19812;SDS011;10066;48.108;11.448;2023-07-13T12:41:38;2.40;;;1.10;;
19812;SDS011;10066;48.108;11.448;2023-07-13T12:44:09;2.97;;;1.20;;
19812;SDS011;10066;48.108;11.448;2023-07-13T12:46:38;4.43;;;1.30;;
19812;SDS011;10066;48.108;11.448;2023-07-13T12:49:06;6.30;;;1.10;;
19812;SDS011;10066;48.108;11.448;2023-07-13T12:51:33;2.70;;;1.30;;
19812;SDS011;10066;48.108;11.448;2023-07-13T12:54:06;1.67;;;1.30;;
19812;SDS011;10066;48.108;11.448;2023-07-13T12:56:41;4.63;;;1.17;;
19812;SDS011;10066;48.108;11.448;2023-07-13T12:59:14;2.07;;;1.20;;
19812;SDS011;10066;48.108;11.448;2023-07-13T13:01:46;7.47;;;1.37;;
19812;SDS011;10066;48.108;11.448;2023-07-13T13:04:15;4.30;;;1.20;;
19812;SDS011;10066;48.108;11.448;2023-07-13T13:06:46;5.47;;;1.30;;
19812;SDS011;10066;48.108;11.448;2023-07-13T13:09:14;4.57;;;1.30;;
19812;SDS011;10066;48.108;11.448;2023-07-13T13:11:43;5.50;;;1.47;;
19812;SDS011;10066;48.108;11.448;2023-07-13T13:14:11;3.10;;;1.43;;
19812;SDS011;10066;48.108;11.448;2023-07-13T13:16:43;3.33;;;1.33;;
19812;SDS011;10066;48.108;11.448;2023-07-13T13:19:15;4.07;;;1.53;;
19812;SDS011;10066;48.108;11.448;2023-07-13T13:21:45;3.53;;;1.20;;
19812;SDS011;10066;48.108;11.448;2023-07-13T13:24:12;3.70;;;1.20;;
19812;SDS011;10066;48.108;11.448;2023-07-13T13:26:40;3.97;;;1.40;;
19812;SDS011;10066;48.108;11.448;2023-07-13T13:29:12;6.67;;;1.57;;
19812;SDS011;10066;48.108;11.448;2023-07-13T13:31:40;2.57;;;1.37;;
19812;SDS011;10066;48.108;11.448;2023-07-13T13:34:08;4.30;;;1.30;;
19812;SDS011;10066;48.108;11.448;2023-07-13T13:36:37;4.53;;;1.40;;
19812;SDS011;10066;48.108;11.448;2023-07-13T13:39:05;3.35;;;1.25;;
19812;SDS011;10066;48.108;11.448;2023-07-13T13:41:44;5.50;;;1.40;;
19812;SDS011;10066;48.108;11.448;2023-07-13T13:44:13;2.30;;;1.20;;
19812;SDS011;10066;48.108;11.448;2023-07-13T13:46:41;2.50;;;1.47;;
19812;SDS011;10066;48.108;11.448;2023-07-13T13:49:10;3.07;;;1.40;;
19812;SDS011;10066;48.108;11.448;2023-07-13T13:51:41;5.67;;;1.43;;
19812;SDS011;10066;48.108;11.448;2023-07-13T13:54:13;5.25;;;1.35;;
19812;SDS011;10066;48.108;11.448;2023-07-13T13:56:41;4.73;;;1.33;;
19812;SDS011;10066;48.108;11.448;2023-07-13T13:59:09;2.40;;;1.20;;
19812;SDS011;10066;48.108;11.448;2023-07-13T14:01:37;4.30;;;1.40;;
19812;SDS011;10066;48.108;11.448;2023-07-13T14:04:06;6.07;;;1.30;;
19812;SDS011;10066;48.108;11.448;2023-07-13T14:06:35;2.60;;;1.10;;
19812;SDS011;10066;48.108;11.448;2023-07-13T14:09:02;4.27;;;1.30;;
19812;SDS011;10066;48.108;11.448;2023-07-13T14:11:30;2.87;;;1.23;;
19812;SDS011;10066;48.108;11.448;2023-07-13T14:13:58;4.17;;;1.27;;
19812;SDS011;10066;48.108;11.448;2023-07-13T14:16:29;2.10;;;1.30;;
19812;SDS011;10066;48.108;11.448;2023-07-13T14:18:59;2.50;;;1.20;;
19812;SDS011;10066;48.108;11.448;2023-07-13T14:21:28;3.67;;;1.23;;
19812;SDS011;10066;48.108;11.448;2023-07-13T14:23:55;6.07;;;1.50;;
19812;SDS011;10066;48.108;11.448;2023-07-13T14:26:23;3.13;;;1.03;;
19812;SDS011;10066;48.108;11.448;2023-07-13T14:28:53;3.53;;;1.30;;
19812;SDS011;10066;48.108;11.448;2023-07-13T14:31:22;2.97;;;1.10;;
19812;SDS011;10066;48.108;11.448;2023-07-13T14:33:51;3.60;;;1.33;;
19812;SDS011;10066;48.108;11.448;2023-07-13T14:36:24;2.27;;;1.20;;
19812;SDS011;10066;48.108;11.448;2023-07-13T14:38:56;2.57;;;1.30;;
19812;SDS011;10066;48.108;11.448;2023-07-13T14:41:23;3.33;;;1.47;;
19812;SDS011;10066;48.108;11.448;2023-07-13T14:43:51;3.93;;;1.33;;
19812;SDS011;10066;48.108;11.448;2023-07-13T14:46:21;4.20;;;1.30;;
19812;SDS011;10066;48.108;11.448;2023-07-13T14:48:56;1.87;;;1.30;;
19812;SDS011;10066;48.108;11.448;2023-07-13T14:51:28;5.53;;;1.20;;